Time;durP1;ratioP1;P1;durP2;ratioP2;P2;SDS_P1;SDS_P2;PMS_P1;PMS_P2;Temp;Humidity;BMP_temperature;BMP_pressure;BME280_temperature;BME280_humidity;BME280_pressure;Samples;Min_cycle;Max_cycle;Signal;HPM_P1;HPM_P2
2023/12/31 00:00:33;;;;;;;;;;;;;;;;;;;;;
2023/12/31 00:12:59;;;;;;;;;;;;;;;;;;;;;
2023/12/31 00:15:50;;;;;;;;;;;;;;;;;;;;;
2023/12/31 00:35:12;;;;;;;;;;;;;;;;;;;;;
2023/12/31 00:38:05;;;;;;;;;;;;;;;;;;;;;
2023/12/31 00:47:26;;;;;;;;;;;;;;;;;;;;;
2023/12/31 00:50:32;;;;;;;;;;;;;;;;;;;;;
2023/12/31 01:03:40;;;;;;;;;;;;;;;;;;;;;
2023/12/31 01:10:56;;;;;;;;;;;;;;;;;;;;;
2023/12/31 01:14:21;;;;;;;;;;;;;;;;;;;;;
2023/12/31 01:38:08;;;;;;;;;;;;;;;;;;;;;
2023/12/31 01:40:39;;;;;;;;;0.00;0.00;;;;;14.68;100.00;99762.97;5755097;24;46484;-93
2023/12/31 01:46:53;;;;;;;;;0.00;0.00;;;;;14.75;100.00;99751.19;5861641;23;45328;-92
2023/12/31 01:50:09;;;;;;;;;;;;;;;;;;;;;
2023/12/31 01:59:50;;;;;;;;;;;;;;;;;;;;;
2023/12/31 02:56:27;;;;;;;;;;;;;;;;;;;;;
2023/12/31 03:00:05;;;;;;;;;;;;;;;;;;;;;
2023/12/31 03:02:55;;;;;;;;;;;;;;;;;;;;;
2023/12/31 03:09:36;;;;;;;;;;;;;;;;;;;;;
2023/12/31 03:12:51;;;;;;;;;0.00;0.00;;;;;15.02;100.00;99620.19;6076253;23;68978;-93
2023/12/31 03:16:30;;;;;;;;;;;;;;;;;;;;;
2023/12/31 04:09:23;;;;;;;;;;;;;;;;;;;;;
2023/12/31 04:18:52;;;;;;;;;0.00;0.00;;;;;14.37;100.00;99513.47;5993832;23;45415;-94
2023/12/31 04:21:17;;;;;;;;;0.00;0.00;;;;;14.25;100.00;99462.75;6013467;23;45237;-93
2023/12/31 04:40:55;;;;;;;;;0.00;0.00;;;;;13.37;100.00;99422.94;5894593;24;45342;-92
2023/12/31 05:12:48;;;;;;;;;0.00;0.00;;;;;11.42;100.00;99473.97;5800435;24;45241;-96
2023/12/31 05:43:24;;;;;;;;;0.00;0.00;;;;;10.95;100.00;99423.44;5132175;27;45287;-87
2023/12/31 05:45:50;;;;;;;;;0.00;0.00;;;;;10.91;100.00;99419.31;5107638;27;45371;-88
2023/12/31 05:48:15;;;;;;;;;0.00;0.00;;;;;10.99;100.00;99426.72;5113326;27;45492;-88
2023/12/31 05:50:40;;;;;;;;;0.00;0.00;;;;;11.04;100.00;99406.50;5094265;27;45495;-86
2023/12/31 05:53:06;;;;;;;;;0.00;0.00;;;;;11.09;100.00;99411.44;5095606;27;47821;-88
2023/12/31 05:55:36;;;;;;;;;0.00;0.00;;;;;10.95;100.00;99412.19;5095707;27;47952;-90
2023/12/31 05:58:04;;;;;;;;;0.50;0.50;;;;;11.45;100.00;99413.06;5077193;27;45358;-88
2023/12/31 06:00:31;;;;;;;;;0.00;0.00;;;;;11.11;100.00;99420.88;5102420;27;45474;-88
2023/12/31 06:02:57;;;;;;;;;0.00;0.00;;;;;11.15;100.00;99417.19;5094266;27;46184;-89
2023/12/31 06:05:22;;;;;;;;;0.00;0.00;;;;;10.95;100.00;99436.44;5088705;27;45496;-88
2023/12/31 06:07:47;;;;;;;;;0.00;0.00;;;;;10.91;100.00;99460.97;5098333;27;45628;-89
2023/12/31 06:10:13;;;;;;;;;0.00;0.00;;;;;10.96;100.00;99453.75;5091647;27;65465;-87
2023/12/31 06:12:43;;;;;;;;;0.00;0.00;;;;;10.80;100.00;99458.06;5113395;27;45418;-89
2023/12/31 06:15:11;;;;;;;;;0.00;0.00;;;;;10.84;100.00;99456.97;5105215;27;45614;-89
2023/12/31 06:17:37;;;;;;;;;0.00;0.00;;;;;10.91;100.00;99466.16;5092210;27;45451;-88
2023/12/31 06:20:04;;;;;;;;;0.00;0.00;;;;;11.01;100.00;99469.13;5098337;27;45357;-90
2023/12/31 06:22:30;;;;;;;;;0.00;0.00;;;;;11.04;100.00;99461.19;5113205;27;46357;-92
2023/12/31 06:24:55;;;;;;;;;0.00;0.00;;;;;11.06;100.00;99471.53;5108240;27;45500;-90
2023/12/31 06:27:22;;;;;;;;;0.00;0.00;;;;;11.03;100.00;99477.72;5111079;27;45448;-89
2023/12/31 06:29:50;;;;;;;;;0.00;0.00;;;;;11.12;100.00;99489.44;5110808;27;45281;-89
2023/12/31 06:32:22;;;;;;;;;0.00;0.00;;;;;11.18;100.00;99494.31;5076253;27;48062;-88
2023/12/31 06:34:50;;;;;;;;;0.00;0.00;;;;;11.17;100.00;99496.09;5092329;27;45171;-89
2023/12/31 06:37:25;;;;;;;;;;;;;;;;;;;;;
2023/12/31 06:39:51;;;;;;;;;0.00;0.00;;;;;11.10;100.00;99497.31;5051835;27;69239;-91
2023/12/31 06:42:16;;;;;;;;;0.00;0.00;;;;;11.20;100.00;99510.72;5078835;27;48044;-91
2023/12/31 06:44:42;;;;;;;;;0.00;0.00;;;;;11.15;100.00;99513.56;5081560;27;45544;-90
2023/12/31 06:47:07;;;;;;;;;0.00;0.00;;;;;11.08;100.00;99512.19;5061823;28;45429;-90
2023/12/31 06:49:32;;;;;;;;;0.00;0.00;;;;;11.22;100.00;99498.47;5070788;27;45385;-88
2023/12/31 06:52:17;;;;;;;;;0.00;0.00;;;;;11.16;100.00;99519.59;5098676;27;45529;-90
2023/12/31 06:54:45;;;;;;;;;0.00;0.00;;;;;11.18;100.00;99513.41;5091629;27;45460;-89
2023/12/31 06:57:10;;;;;;;;;0.00;0.00;;;;;11.28;100.00;99545.03;5064707;27;45490;-90
2023/12/31 06:59:38;;;;;;;;;0.00;0.00;;;;;11.18;100.00;99573.31;5071016;27;45390;-89
2023/12/31 07:02:06;;;;;;;;;0.00;0.00;;;;;11.35;100.00;99561.22;5099252;27;47024;-89
2023/12/31 07:04:31;;;;;;;;;0.00;0.00;;;;;11.26;100.00;99583.34;5097336;27;45455;-90
2023/12/31 07:06:59;;;;;;;;;0.00;0.00;;;;;11.30;100.00;99573.63;5074748;28;45388;-87
2023/12/31 07:09:24;;;;;;;;;0.00;0.00;;;;;11.08;100.00;99592.06;5079671;27;45445;-88
2023/12/31 07:11:52;;;;;;;;;0.00;0.00;;;;;11.21;100.00;99590.53;5096703;27;54304;-88
2023/12/31 07:14:19;;;;;;;;;0.00;0.00;;;;;11.16;100.00;99587.31;5077214;27;45315;-88
2023/12/31 07:17:00;;;;;;;;;;;;;;;;;;;;;
2023/12/31 07:19:26;;;;;;;;;0.00;0.00;;;;;10.94;100.00;99623.97;5078004;27;69423;-90
2023/12/31 07:22:01;;;;;;;;;0.00;0.00;;;;;11.02;100.00;99616.66;5079210;27;47057;-87
2023/12/31 07:24:26;;;;;;;;;0.00;0.00;;;;;10.91;100.00;99621.53;5078238;27;45562;-89
2023/12/31 07:26:52;;;;;;;;;0.00;0.00;;;;;10.95;100.00;99612.66;5094312;27;45408;-87
2023/12/31 07:29:30;;;;;;;;;;;;;;;;;;;;;
2023/12/31 07:31:58;;;;;;;;;0.00;0.00;;;;;10.93;100.00;99637.94;5097026;27;75388;-88
2023/12/31 07:34:24;;;;;;;;;0.00;0.00;;;;;10.94;100.00;99630.03;5096106;27;46416;-87
2023/12/31 07:36:49;;;;;;;;;0.00;0.00;;;;;10.91;100.00;99621.53;5079829;27;45512;-86
2023/12/31 07:39:19;;;;;;;;;0.00;0.00;;;;;10.92;100.00;99626.69;5060879;28;45288;-90
2023/12/31 07:41:50;;;;;;;;;0.00;0.00;;;;;10.93;100.00;99645.75;5093780;27;47830;-87
2023/12/31 07:44:16;;;;;;;;;0.00;0.00;;;;;10.82;100.00;99662.69;5090201;27;45941;-88
2023/12/31 07:46:48;;;;;;;;;0.00;0.00;;;;;10.85;100.00;99678.19;5084589;28;45412;-88
2023/12/31 07:49:23;;;;;;;;;0.00;0.00;;;;;10.75;100.00;99676.91;5088055;27;45533;-88
2023/12/31 07:51:48;;;;;;;;;0.00;0.00;;;;;10.78;100.00;99688.97;5097264;27;45454;-90
2023/12/31 07:54:22;;;;;;;;;0.00;0.00;;;;;10.84;100.00;99694.69;5095364;27;45690;-89
2023/12/31 07:57:04;;;;;;;;;0.00;0.00;;;;;10.73;100.00;99702.16;5080414;27;45468;-92
2023/12/31 07:59:29;;;;;;;;;0.00;0.00;;;;;10.82;100.00;99717.38;5076527;27;45426;-85
2023/12/31 08:01:55;;;;;;;;;0.00;0.00;;;;;10.85;100.00;99712.03;5094422;27;70755;-84
2023/12/31 08:04:22;;;;;;;;;0.00;0.00;;;;;10.82;100.00;99730.38;5082593;27;45524;-86
2023/12/31 08:06:47;;;;;;;;;0.00;0.00;;;;;10.84;100.00;99706.88;5082628;27;45634;-83
2023/12/31 08:09:15;;;;;;;;;0.00;0.00;;;;;10.85;100.00;99737.22;5088855;27;45683;-84
2023/12/31 08:11:40;;;;;;;;;0.00;0.00;;;;;10.76;100.00;99745.44;5077745;27;46072;-83
2023/12/31 08:14:06;;;;;;;;;0.00;0.00;;;;;10.83;100.00;99736.44;5085291;27;45472;-83
2023/12/31 08:16:31;;;;;;;;;0.00;0.00;;;;;10.83;100.00;99739.88;5093516;27;64844;-83
2023/12/31 08:18:56;;;;;;;;;0.00;0.00;;;;;10.80;100.00;99755.63;5077466;27;45532;-83
2023/12/31 08:21:22;;;;;;;;;0.00;0.00;;;;;10.88;100.00;99742.28;5094818;27;75559;-82
2023/12/31 08:23:47;;;;;;;;;0.00;0.00;;;;;10.96;100.00;99745.38;5093682;27;70852;-81
2023/12/31 08:26:16;;;;;;;;;0.00;0.00;;;;;10.85;100.00;99752.84;5084923;27;67764;-87
2023/12/31 08:28:41;;;;;;;;;0.00;0.00;;;;;10.95;100.00;99756.69;5076316;27;47346;-82
2023/12/31 08:31:12;;;;;;;;;0.00;0.00;;;;;10.99;100.00;99750.44;5075353;28;46217;-82
2023/12/31 08:33:38;;;;;;;;;0.00;0.00;;;;;10.94;100.00;99775.84;5085850;27;45401;-82
2023/12/31 08:36:03;;;;;;;;;0.00;0.00;;;;;10.98;100.00;99774.78;5094659;27;56337;-86
2023/12/31 08:38:29;;;;;;;;;0.00;0.00;;;;;10.92;100.00;99777.69;5096320;27;45553;-84
2023/12/31 08:40:54;;;;;;;;;0.00;0.00;;;;;11.01;100.00;99763.38;5072869;27;75714;-83
2023/12/31 08:43:19;;;;;;;;;0.00;0.00;;;;;10.93;100.00;99778.53;5088063;27;66519;-86
2023/12/31 08:45:44;;;;;;;;;0.00;0.00;;;;;10.90;100.00;99808.16;5086770;27;45499;-83
2023/12/31 08:48:10;;;;;;;;;0.00;0.00;;;;;10.96;100.00;99807.03;5085333;27;70384;-83
2023/12/31 08:50:36;;;;;;;;;0.00;0.00;;;;;10.95;100.00;99816.59;5076326;28;45393;-82
2023/12/31 08:53:01;;;;;;;;;0.00;0.00;;;;;11.01;100.00;99802.44;5077690;27;45239;-84
2023/12/31 08:55:26;;;;;;;;;0.00;0.00;;;;;10.98;100.00;99797.41;5076058;27;69579;-85
2023/12/31 08:57:52;;;;;;;;;0.00;0.00;;;;;10.99;100.00;99807.72;5065973;27;72191;-87
2023/12/31 09:00:20;;;;;;;;;0.00;0.00;;;;;11.04;100.00;99816.16;5092347;27;45459;-88
2023/12/31 09:02:48;;;;;;;;;0.00;0.00;;;;;11.10;100.00;99811.59;5081781;27;46304;-95
2023/12/31 09:05:26;;;;;;;;;0.00;0.00;;;;;11.17;100.00;99811.25;5088865;27;60610;-93
2023/12/31 09:07:51;;;;;;;;;0.00;0.00;;;;;11.18;100.00;99801.66;5100977;27;52663;-95
2023/12/31 09:10:44;;;;;;;;;0.00;0.00;;;;;11.34;100.00;99805.25;5092409;27;47154;-92
2023/12/31 09:13:15;;;;;;;;;0.00;0.00;;;;;11.48;100.00;99816.78;5014834;28;45493;-86
2023/12/31 09:15:45;;;;;;;;;0.00;0.00;;;;;11.73;100.00;99843.38;5004733;28;45379;-89
2023/12/31 09:18:11;;;;;;;;;0.00;0.00;;;;;11.76;100.00;99830.19;5014141;28;45440;-85
2023/12/31 09:20:45;;;;;;;;;0.00;0.00;;;;;11.84;100.00;99863.72;5012429;28;47581;-91
2023/12/31 09:23:16;;;;;;;;;0.00;0.00;;;;;11.88;100.00;99843.56;4995776;28;45370;-91
2023/12/31 09:25:53;;;;;;;;;0.00;0.00;;;;;11.85;100.00;99841.94;5005334;28;45332;-90
2023/12/31 09:28:21;;;;;;;;;0.00;0.00;;;;;11.87;100.00;99840.09;5011914;28;45660;-91
2023/12/31 09:30:46;;;;;;;;;0.00;0.00;;;;;11.68;100.00;99871.44;4979395;28;48372;-94
2023/12/31 09:33:12;;;;;;;;;0.00;0.00;;;;;11.57;100.00;99879.75;4988833;28;45704;-90
2023/12/31 09:35:38;;;;;;;;;0.00;0.00;;;;;11.77;100.00;99850.13;4999864;28;45415;-91
2023/12/31 09:38:06;;;;;;;;;0.00;0.00;;;;;11.69;100.00;99861.84;4985899;28;45650;-90
2023/12/31 09:40:43;;;;;;;;;0.00;0.00;;;;;11.86;100.00;99859.25;5011883;28;60099;-87
2023/12/31 09:43:35;;;;;;;;;0.00;0.00;;;;;11.87;100.00;99866.19;4983979;28;45530;-91
2023/12/31 09:47:26;;;;;;;;;0.00;0.00;;;;;11.80;100.00;99856.97;4993549;28;45491;-94
2023/12/31 09:49:49;;;;;;;;;0.00;0.00;;;;;11.89;100.00;99897.41;4989471;28;45869;-94
2023/12/31 09:52:31;;;;;;;;;;;;;;;;;;;;;
2023/12/31 09:55:04;;;;;;;;;0.00;0.00;;;;;11.96;100.00;99891.84;5001823;28;74255;-92
2023/12/31 09:57:35;;;;;;;;;0.00;0.00;;;;;11.97;100.00;99890.91;5011243;28;45502;-90
2023/12/31 10:00:04;;;;;;;;;0.00;0.00;;;;;12.05;100.00;99882.72;5008888;28;45475;-88
2023/12/31 10:05:24;;;;;;;;;0.00;0.00;;;;;12.13;100.00;99890.19;5011249;28;45393;-95
2023/12/31 10:08:21;;;;;;;;;0.00;0.00;;;;;12.04;100.00;99916.72;5007325;28;45529;-92
2023/12/31 10:11:16;;;;;;;;;0.00;0.00;;;;;12.24;100.00;99900.94;4955646;28;45457;-92
2023/12/31 10:14:05;;;;;;;;;0.00;0.00;;;;;12.15;100.00;99896.19;4939324;28;47307;-92
2023/12/31 10:16:48;;;;;;;;;0.00;0.00;;;;;12.23;100.00;99896.63;4953295;28;45348;-89
2023/12/31 10:19:14;;;;;;;;;0.00;0.00;;;;;12.37;100.00;99904.63;4926593;28;45496;-91
2023/12/31 10:21:41;;;;;;;;;1.00;0.00;;;;;12.36;100.00;99915.97;4951515;28;45517;-88
2023/12/31 10:24:10;;;;;;;;;0.00;0.00;;;;;12.44;100.00;99897.31;4949832;28;47178;-86
2023/12/31 10:26:41;;;;;;;;;0.00;0.00;;;;;12.45;100.00;99899.03;4978054;28;45579;-88
2023/12/31 10:29:19;;;;;;;;;0.00;0.00;;;;;12.59;100.00;99882.66;4993717;28;45456;-91
2023/12/31 10:31:48;;;;;;;;;0.00;0.00;;;;;12.69;100.00;99891.72;4980383;28;45453;-91
2023/12/31 10:34:41;;;;;;;;;0.00;0.00;;;;;12.75;100.00;99880.94;5000569;28;47363;-90
2023/12/31 10:37:08;;;;;;;;;0.00;0.00;;;;;12.73;100.00;99895.03;5017873;28;45352;-85
2023/12/31 10:39:38;;;;;;;;;0.50;0.00;;;;;12.60;100.00;99879.13;4996236;28;45528;-93
2023/12/31 10:42:08;;;;;;;;;0.00;0.00;;;;;12.54;100.00;99877.69;4981607;28;45498;-90
2023/12/31 10:44:59;;;;;;;;;0.00;0.00;;;;;12.50;100.00;99865.72;4989225;28;45362;-93
2023/12/31 10:48:01;;;;;;;;;0.00;0.00;;;;;12.59;100.00;99869.59;5038407;27;46633;-95
2023/12/31 10:50:30;;;;;;;;;0.00;0.00;;;;;12.79;100.00;99872.03;5077785;27;45694;-90
2023/12/31 10:55:44;;;;;;;;;0.00;0.00;;;;;13.16;100.00;99851.81;5095909;27;45786;-86
2023/12/31 10:58:13;;;;;;;;;0.00;0.00;;;;;13.50;100.00;99864.84;5095245;27;67975;-87
2023/12/31 11:00:39;;;;;;;;;0.00;0.00;;;;;13.71;100.00;99871.50;5097689;27;45384;-87
2023/12/31 11:03:05;;;;;;;;;1.50;1.50;;;;;14.49;100.00;99874.03;5099482;27;45433;-89
2023/12/31 11:05:38;;;;;;;;;1.00;1.00;;;;;16.19;100.00;99838.13;5097509;27;49554;-86
2023/12/31 11:08:04;;;;;;;;;0.00;0.00;;;;;17.22;100.00;99853.94;5095188;27;45417;-87
2023/12/31 11:10:30;;;;;;;;;0.00;0.00;;;;;18.71;100.00;99844.75;5062187;28;45407;-87
2023/12/31 11:13:01;;;;;;;;;0.00;0.00;;;;;19.70;95.49;99865.06;5077218;28;57868;-88
2023/12/31 11:15:29;;;;;;;;;1.00;0.00;;;;;20.07;88.61;99850.69;5077100;28;45461;-90
2023/12/31 11:18:23;;;;;;;;;0.00;0.00;;;;;20.79;85.63;99859.69;5078087;27;45367;-90
2023/12/31 11:21:32;;;;;;;;;;;;;;;;;;;;;
2023/12/31 11:24:07;;;;;;;;;0.00;0.00;;;;;21.35;77.67;99853.06;5098989;27;70174;-88
2023/12/31 11:26:37;;;;;;;;;0.00;0.00;;;;;21.66;77.35;99856.50;5098974;27;45504;-89
2023/12/31 11:29:09;;;;;;;;;0.00;0.00;;;;;22.12;82.36;99844.41;5097446;27;45361;-91
2023/12/31 11:31:49;;;;;;;;;1.00;0.00;;;;;21.85;71.15;99842.44;5096748;27;45452;-88
2023/12/31 11:34:15;;;;;;;;;0.00;0.00;;;;;21.59;70.45;99868.63;5095148;27;45691;-94
2023/12/31 11:36:41;;;;;;;;;0.00;0.00;;;;;21.63;74.49;99825.81;5095962;27;45539;-96
2023/12/31 11:39:14;;;;;;;;;0.00;0.00;;;;;21.74;70.19;99855.81;5081520;27;45431;-86
2023/12/31 11:41:50;;;;;;;;;0.00;0.00;;;;;21.74;69.95;99832.81;5101938;27;45321;-93
2023/12/31 11:44:35;;;;;;;;;0.00;0.00;;;;;22.12;68.17;99840.88;5087964;27;45472;-88
2023/12/31 11:47:00;;;;;;;;;0.00;0.00;;;;;21.79;69.57;99835.88;5087439;27;47491;-92
2023/12/31 11:49:26;;;;;;;;;4.50;4.50;;;;;21.17;66.99;99843.13;5090163;28;45353;-92
2023/12/31 11:52:07;;;;;;;;;0.00;0.00;;;;;21.66;68.90;99832.66;5082207;28;45401;-83
2023/12/31 11:54:37;;;;;;;;;1.00;0.00;;;;;22.21;65.99;99840.91;5076490;28;45392;-84
2023/12/31 11:57:04;;;;;;;;;0.00;0.00;;;;;22.91;64.53;99839.78;5087262;27;45356;-84
2023/12/31 11:59:33;;;;;;;;;0.00;0.00;;;;;23.37;62.52;99848.66;5081649;27;45374;-84
2023/12/31 12:01:59;;;;;;;;;0.00;0.00;;;;;22.94;60.67;99845.63;5075418;28;45427;-84
2023/12/31 12:04:24;;;;;;;;;0.25;0.00;;;;;22.14;60.01;99914.00;5080247;27;45578;-84
2023/12/31 12:06:52;;;;;;;;;6.00;6.00;;;;;22.53;62.09;99828.28;5076925;27;45796;-88
2023/12/31 12:09:21;;;;;;;;;0.00;0.00;;;;;22.60;60.40;99842.66;5078063;28;58558;-88
2023/12/31 12:11:49;;;;;;;;;0.00;0.00;;;;;22.77;61.52;99836.63;5078553;27;45230;-87
2023/12/31 12:14:15;;;;;;;;;0.00;0.00;;;;;23.48;64.74;99834.34;5076793;27;45624;-86
2023/12/31 12:16:40;;;;;;;;;0.00;0.00;;;;;23.55;57.33;99830.94;5083654;27;46625;-88
2023/12/31 12:19:08;;;;;;;;;0.00;0.00;;;;;23.49;57.62;99841.31;5068363;28;45492;-94
2023/12/31 12:21:41;;;;;;;;;0.00;0.00;;;;;23.21;54.80;99865.22;5078466;28;45377;-94
2023/12/31 12:24:17;;;;;;;;;0.00;0.00;;;;;23.00;57.04;99836.25;5075998;28;45578;-87
2023/12/31 12:26:42;;;;;;;;;0.00;0.00;;;;;23.22;55.58;99837.69;5077119;27;46749;-87
2023/12/31 12:29:15;;;;;;;;;0.00;0.00;;;;;23.44;56.06;99838.25;5075027;27;45493;-87
2023/12/31 12:31:50;;;;;;;;;0.00;0.00;;;;;23.56;56.31;99834.41;5075686;28;45451;-86
2023/12/31 12:34:46;;;;;;;;;0.00;0.00;;;;;23.95;55.35;99831.50;5058367;28;45362;-88
2023/12/31 12:37:15;;;;;;;;;0.00;0.00;;;;;24.46;53.39;99827.22;5079844;27;47037;-93
2023/12/31 12:40:27;;;;;;;;;0.00;0.00;;;;;25.17;51.69;99821.78;5086725;27;45464;-95
2023/12/31 12:43:01;;;;;;;;;0.00;0.00;;;;;25.54;53.39;99829.41;5063044;28;45340;-93
2023/12/31 12:45:39;;;;;;;;;0.00;0.00;;;;;25.74;51.19;99821.09;5053209;28;45651;-88
2023/12/31 12:48:34;;;;;;;;;0.00;0.00;;;;;26.31;49.26;99813.13;5040522;28;46253;-90
2023/12/31 12:51:15;;;;;;;;;0.00;0.00;;;;;27.39;46.37;99819.78;5054723;28;45467;-86
2023/12/31 12:53:43;;;;;;;;;0.00;0.00;;;;;27.48;46.09;99812.56;5020833;28;45320;-89
2023/12/31 12:56:11;;;;;;;;;0.00;0.00;;;;;26.79;47.87;99807.88;5048745;28;45601;-88
2023/12/31 12:58:50;;;;;;;;;0.00;0.00;;;;;25.67;46.99;99831.59;5018209;28;45434;-92
2023/12/31 13:01:21;;;;;;;;;0.00;0.00;;;;;24.60;47.72;99817.84;5039594;28;45464;-88
2023/12/31 13:03:55;;;;;;;;;0.50;0.50;;;;;24.10;50.04;99798.03;5023589;28;49091;-92
2023/12/31 13:06:37;;;;;;;;;0.00;0.00;;;;;24.64;48.35;99807.72;5021324;28;45443;-94
2023/12/31 13:09:02;;;;;;;;;0.00;0.00;;;;;25.03;48.30;99804.59;5036718;28;45693;-91
2023/12/31 13:11:36;;;;;;;;;0.00;0.00;;;;;23.38;48.16;99810.47;5020384;28;45338;-90
2023/12/31 13:14:54;;;;;;;;;0.00;0.00;;;;;23.48;52.14;99815.75;5030228;28;46182;-96
2023/12/31 13:18:26;;;;;;;;;0.00;0.00;;;;;23.67;50.51;99799.66;4923672;28;45310;-95
2023/12/31 13:21:03;;;;;;;;;0.00;0.00;;;;;21.41;51.71;99818.09;4909603;28;45520;-96
2023/12/31 13:24:06;;;;;;;;;0.00;0.00;;;;;19.98;55.84;99788.88;4910409;28;45592;-94
2023/12/31 13:26:32;;;;;;;;;0.00;0.00;;;;;18.28;58.63;99834.84;4933770;28;45632;-90
2023/12/31 13:28:58;;;;;;;;;0.00;0.00;;;;;18.14;62.01;99794.56;4915873;28;63115;-88
2023/12/31 13:31:33;;;;;;;;;0.00;0.00;;;;;19.48;58.96;99801.78;4947303;28;47530;-91
2023/12/31 13:34:05;;;;;;;;;0.00;0.00;;;;;18.74;60.56;99790.00;4937521;28;45300;-92
2023/12/31 13:36:55;;;;;;;;;0.00;0.00;;;;;18.75;62.58;99810.09;4937897;28;45370;-90
2023/12/31 13:39:21;;;;;;;;;0.50;0.50;;;;;18.48;62.21;99802.56;4903306;28;45680;-92
2023/12/31 13:41:51;;;;;;;;;0.00;0.00;;;;;20.40;61.97;99791.53;4916696;28;45643;-91
2023/12/31 13:44:17;;;;;;;;;0.00;0.00;;;;;22.27;55.57;99790.97;4931337;28;45409;-91
2023/12/31 13:46:44;;;;;;;;;0.00;0.00;;;;;23.23;55.34;99786.25;4938131;28;45324;-91
2023/12/31 13:49:15;;;;;;;;;0.00;0.00;;;;;21.64;55.54;99801.03;4921823;28;45326;-93
2023/12/31 13:51:43;;;;;;;;;0.00;0.00;;;;;19.58;58.63;99830.94;4937498;28;45536;-94
2023/12/31 13:54:09;;;;;;;;;0.00;0.00;;;;;18.47;60.91;99807.94;5035237;27;45253;-90
2023/12/31 13:56:50;;;;;;;;;0.00;0.00;;;;;17.31;63.54;99820.84;5085382;28;45237;-87
2023/12/31 13:59:15;;;;;;;;;0.00;0.00;;;;;16.52;65.94;99810.53;5080310;27;45509;-87
2023/12/31 14:01:43;;;;;;;;;0.00;0.00;;;;;15.91;68.49;99823.34;5063563;28;47806;-96
2023/12/31 14:04:09;;;;;;;;;0.00;0.00;;;;;15.59;70.50;99814.94;5093813;27;62286;-94
2023/12/31 14:06:34;;;;;;;;;0.00;0.00;;;;;15.28;72.63;99832.63;5095805;27;45440;-95
2023/12/31 14:09:00;;;;;;;;;0.00;0.00;;;;;14.88;75.10;99820.22;5086375;27;45442;-88
2023/12/31 14:11:25;;;;;;;;;0.00;0.00;;;;;14.60;76.82;99828.06;5078332;28;46957;-88
2023/12/31 14:13:50;;;;;;;;;0.00;0.00;;;;;14.36;78.28;99825.09;5061694;28;63667;-87
2023/12/31 14:16:16;;;;;;;;;0.00;0.00;;;;;13.97;80.04;99837.81;5061599;28;69167;-89
2023/12/31 14:18:41;;;;;;;;;0.00;0.00;;;;;14.08;81.21;99826.72;5078003;28;72150;-87
2023/12/31 14:21:07;;;;;;;;;0.00;0.00;;;;;14.00;82.45;99828.94;5061549;28;57894;-87
2023/12/31 14:23:32;;;;;;;;;0.00;0.00;;;;;13.92;83.15;99842.47;5061872;28;45517;-87
2023/12/31 14:25:57;;;;;;;;;0.00;0.00;;;;;13.70;84.06;99827.13;5062121;28;45361;-88
2023/12/31 14:28:23;;;;;;;;;0.00;0.00;;;;;13.61;85.32;99840.72;5078916;28;45296;-85
2023/12/31 14:30:48;;;;;;;;;0.00;0.00;;;;;13.49;86.72;99842.25;5078891;28;73825;-86
2023/12/31 14:33:14;;;;;;;;;0.00;0.00;;;;;13.35;87.09;99863.91;5079548;28;45291;-88
2023/12/31 14:35:39;;;;;;;;;0.00;0.00;;;;;13.31;88.36;99842.31;5078169;28;63877;-86
2023/12/31 14:38:04;;;;;;;;;0.00;0.00;;;;;13.26;88.33;99852.19;5077588;28;70471;-88
2023/12/31 14:40:30;;;;;;;;;0.00;0.00;;;;;13.27;89.04;99825.09;5061383;28;48022;-86
2023/12/31 14:42:55;;;;;;;;;0.00;0.00;;;;;13.18;89.47;99822.97;5094667;27;68960;-88
2023/12/31 14:45:21;;;;;;;;;0.00;0.00;;;;;13.32;90.12;99824.91;5081812;27;51199;-86
2023/12/31 14:47:46;;;;;;;;;0.00;0.00;;;;;13.37;90.51;99828.06;5098869;27;45696;-87
2023/12/31 14:50:12;;;;;;;;;0.00;0.00;;;;;13.43;90.40;99824.28;5081769;27;46952;-87
2023/12/31 14:52:37;;;;;;;;;0.00;0.00;;;;;13.52;89.95;99829.00;5099720;27;45209;-87
2023/12/31 14:55:03;;;;;;;;;0.00;0.00;;;;;13.43;90.10;99839.97;5080661;27;70066;-89
2023/12/31 14:57:33;;;;;;;;;0.00;0.00;;;;;13.53;90.57;99825.47;5081321;27;45332;-87
2023/12/31 14:59:58;;;;;;;;;0.00;0.00;;;;;13.44;90.61;99823.38;5080706;27;77543;-86
2023/12/31 15:02:25;;;;;;;;;0.00;0.00;;;;;13.34;90.87;99834.31;5099163;27;45363;-87
2023/12/31 15:04:50;;;;;;;;;0.00;0.00;;;;;13.24;91.36;99830.50;5081311;27;45386;-86
2023/12/31 15:07:15;;;;;;;;;0.00;0.00;;;;;13.25;91.97;99826.13;5098394;27;47718;-86
2023/12/31 15:09:41;;;;;;;;;0.00;0.00;;;;;13.06;92.79;99841.94;5099438;27;49267;-87
2023/12/31 15:12:07;;;;;;;;;0.00;0.00;;;;;13.23;92.94;99830.59;5097353;27;60524;-86
2023/12/31 15:14:33;;;;;;;;;0.00;0.00;;;;;13.05;92.59;99838.47;5081513;27;45294;-88
2023/12/31 15:16:58;;;;;;;;;0.00;0.00;;;;;13.05;93.13;99850.69;5099753;27;46953;-88
2023/12/31 15:19:23;;;;;;;;;0.00;0.00;;;;;14.13;90.09;99835.13;5098543;27;66551;-86
2023/12/31 15:21:49;;;;;;;;;0.00;0.00;;;;;14.43;89.04;99826.41;5099486;27;45459;-86
2023/12/31 15:24:14;;;;;;;;;0.00;0.00;;;;;14.35;88.24;99833.88;5079901;27;66693;-86
2023/12/31 15:26:41;;;;;;;;;0.00;0.00;;;;;13.40;91.55;99845.38;5098041;27;56326;-87
2023/12/31 15:29:07;;;;;;;;;0.00;0.00;;;;;13.12;91.98;99852.91;5098035;27;47098;-88
2023/12/31 15:31:34;;;;;;;;;0.00;0.00;;;;;13.01;93.36;99867.47;5099514;27;45420;-88
2023/12/31 15:33:59;;;;;;;;;0.00;0.00;;;;;13.00;94.10;99850.97;5098368;27;45290;-87
2023/12/31 15:36:24;;;;;;;;;0.00;0.00;;;;;13.07;95.03;99843.63;5079717;27;72029;-86
2023/12/31 15:38:50;;;;;;;;;0.00;0.00;;;;;13.01;95.54;99847.41;5079872;27;55499;-87
2023/12/31 15:41:16;;;;;;;;;0.00;0.00;;;;;12.85;95.99;99862.19;5079578;27;73079;-88
2023/12/31 15:43:41;;;;;;;;;0.00;0.00;;;;;12.79;95.87;99858.13;5079484;27;45404;-88
2023/12/31 15:46:07;;;;;;;;;0.00;0.00;;;;;12.87;96.56;99862.97;5080008;27;71123;-87
2023/12/31 15:48:34;;;;;;;;;0.00;0.00;;;;;12.71;96.90;99863.75;5097055;27;73951;-88
2023/12/31 15:51:00;;;;;;;;;0.00;0.00;;;;;12.78;98.07;99854.69;5115267;27;45355;-86
2023/12/31 15:53:25;;;;;;;;;0.00;0.00;;;;;12.73;98.22;99858.47;5099646;27;62724;-87
2023/12/31 15:55:50;;;;;;;;;0.00;0.00;;;;;12.62;99.74;99855.56;5080794;27;70654;-89
2023/12/31 15:58:16;;;;;;;;;6.00;0.00;;;;;12.50;99.53;99852.66;5102702;27;71763;-87
2023/12/31 16:00:41;;;;;;;;;0.00;0.00;;;;;12.34;100.00;99865.63;5104278;27;69938;-88
2023/12/31 16:03:06;;;;;;;;;0.00;0.00;;;;;12.33;100.00;99861.34;5082662;27;66788;-87
2023/12/31 16:05:32;;;;;;;;;0.00;0.00;;;;;12.29;100.00;99867.63;5080562;27;45247;-87
2023/12/31 16:07:57;;;;;;;;;0.00;0.00;;;;;12.25;100.00;99886.97;5079001;27;77336;-87
2023/12/31 16:10:23;;;;;;;;;0.00;0.00;;;;;12.17;100.00;99878.69;5097511;27;45694;-87
2023/12/31 16:12:48;;;;;;;;;0.00;0.00;;;;;12.23;100.00;99875.75;5097273;27;45273;-86
2023/12/31 16:15:13;;;;;;;;;0.00;0.00;;;;;12.15;100.00;99880.53;5097418;27;45322;-85
2023/12/31 16:17:39;;;;;;;;;0.00;0.00;;;;;11.99;100.00;99924.75;5096914;27;55511;-88
2023/12/31 16:20:06;;;;;;;;;0.00;0.00;;;;;12.12;100.00;99901.53;5097335;27;45629;-87
2023/12/31 16:22:31;;;;;;;;;0.00;0.00;;;;;12.18;100.00;99903.84;5098662;27;45343;-89
2023/12/31 16:24:57;;;;;;;;;0.00;0.00;;;;;12.13;100.00;99905.84;5098458;27;45317;-85
2023/12/31 16:27:22;;;;;;;;;0.00;0.00;;;;;12.05;100.00;99900.13;5096969;27;46097;-85
2023/12/31 16:29:48;;;;;;;;;0.00;0.00;;;;;12.25;100.00;99900.00;5096948;27;45338;-86
2023/12/31 16:32:13;;;;;;;;;0.00;0.00;;;;;12.22;100.00;99904.53;5096963;27;45217;-86
2023/12/31 16:34:38;;;;;;;;;1.50;1.50;;;;;12.11;100.00;99900.69;5097136;27;45524;-87
2023/12/31 16:37:04;;;;;;;;;0.00;0.00;;;;;12.09;100.00;99922.53;5096481;27;55270;-88
2023/12/31 16:39:29;;;;;;;;;0.00;0.00;;;;;11.98;100.00;99946.56;5079021;27;73309;-89
2023/12/31 16:41:55;;;;;;;;;0.00;0.00;;;;;12.04;100.00;99919.34;5093984;27;45229;-87
2023/12/31 16:44:20;;;;;;;;;0.00;0.00;;;;;11.94;100.00;99924.13;5081793;27;45412;-86
2023/12/31 16:46:45;;;;;;;;;0.00;0.00;;;;;11.89;100.00;99939.13;5078858;27;75579;-88
2023/12/31 16:49:10;;;;;;;;;0.00;0.00;;;;;11.89;100.00;99929.53;5096996;27;45439;-87
2023/12/31 16:51:36;;;;;;;;;0.00;0.00;;;;;11.86;100.00;99927.06;5079097;27;60549;-86
2023/12/31 16:54:01;;;;;;;;;0.00;0.00;;;;;11.81;100.00;99926.44;5097356;27;69408;-88
2023/12/31 16:56:27;;;;;;;;;0.00;0.00;;;;;11.84;100.00;99933.28;5096833;27;45357;-86